Time;durP1;ratioP1;P1;durP2;ratioP2;P2;SDS_P1;SDS_P2;PMS_P1;PMS_P2;Temp;Humidity;BMP_temperature;BMP_pressure;BME280_temperature;BME280_humidity;BME280_pressure;Samples;Min_cycle;Max_cycle;Signal;HPM_P1;HPM_P2
2022/09/08 00:00:11;;;;;;;3.63;3.33;;;17.10;71.50;;;;;;5111737;27;20027;-81
2022/09/08 00:02:37;;;;;;;3.45;3.22;;;17.10;71.60;;;;;;5129290;27;20023;-81
2022/09/08 00:05:04;;;;;;;;;;;17.20;71.60;;;;;;5129418;27;20110;-81
2022/09/08 00:07:31;;;;;;;2.75;2.55;;;17.20;71.60;;;;;;5130208;27;19915;-81
2022/09/08 00:09:57;;;;;;;3.42;3.22;;;17.20;71.60;;;;;;5111949;27;20088;-81
2022/09/08 00:12:24;;;;;;;3.00;2.80;;;17.30;71.60;;;;;;5128747;27;20031;-81
2022/09/08 00:14:51;;;;;;;2.97;2.78;;;17.30;71.50;;;;;;5128843;27;20474;-81
2022/09/08 00:17:17;;;;;;;2.72;2.53;;;17.40;71.60;;;;;;5128798;27;20019;-81
2022/09/08 00:19:43;;;;;;;;;;;17.40;71.60;;;;;;5111991;27;20029;-81
2022/09/08 00:22:09;;;;;;;2.40;2.20;;;17.50;71.60;;;;;;5128600;27;20345;-82
2022/09/08 00:24:35;;;;;;;3.10;2.90;;;17.40;71.40;;;;;;5129880;27;20391;-81
2022/09/08 00:27:00;;;;;;;2.55;2.35;;;17.40;71.50;;;;;;5128434;27;20038;-82
2022/09/08 00:29:26;;;;;;;2.25;2.05;;;17.30;71.50;;;;;;5129611;27;20039;-81
2022/09/08 00:31:52;;;;;;;2.25;2.05;;;17.30;71.50;;;;;;5128519;27;20482;-81
2022/09/08 00:34:17;;;;;;;2.33;2.13;;;17.30;71.60;;;;;;5110658;27;20031;-82
2022/09/08 00:36:43;;;;;;;2.40;2.20;;;17.30;71.60;;;;;;5129623;27;20389;-81
2022/09/08 00:39:09;;;;;;;2.67;2.47;;;17.30;71.60;;;;;;5129478;27;20515;-81
2022/09/08 00:41:35;;;;;;;2.42;2.22;;;17.20;71.60;;;;;;5128274;27;20044;-82
2022/09/08 00:44:40;;;;;;;2.10;1.92;;;17.20;71.60;;;;;;5111134;27;20042;-81
2022/09/08 00:47:14;;;;;;;2.42;2.22;;;17.30;71.70;;;;;;5124487;27;20031;-81
2022/09/08 00:49:42;;;;;;;2.67;2.47;;;17.30;71.60;;;;;;5127843;27;20023;-81
2022/09/08 00:52:08;;;;;;;2.35;2.15;;;17.40;71.70;;;;;;5129501;27;20031;-81
2022/09/08 00:54:35;;;;;;;;;;;17.40;71.60;;;;;;5128311;27;20047;-81
2022/09/08 00:57:02;;;;;;;3.25;3.05;;;17.50;71.60;;;;;;5129225;27;20271;-81
2022/09/08 00:59:28;;;;;;;3.38;3.17;;;17.50;71.40;;;;;;5110910;27;20103;-81
2022/09/08 01:01:54;;;;;;;3.65;3.35;;;17.40;71.30;;;;;;5129104;27;20436;-81
2022/09/08 01:04:21;;;;;;;3.15;2.95;;;17.30;71.40;;;;;;5127796;27;20030;-81
2022/09/08 01:13:10;;;;;;;3.10;2.90;;;17.10;71.70;;;;;;5107337;27;20083;-81
2022/09/08 01:15:36;;;;;;;3.65;3.35;;;17.20;71.60;;;;;;5127561;27;20023;-81
2022/09/08 01:18:02;;;;;;;3.67;3.40;;;17.20;71.60;;;;;;5128845;27;20420;-81
2022/09/08 01:20:38;;;;;;;3.15;2.95;;;17.20;71.70;;;;;;5128748;27;20106;-81
2022/09/08 01:23:07;;;;;;;3.40;3.20;;;17.20;71.70;;;;;;5128860;27;20038;-81
2022/09/08 01:25:54;;;;;;;3.92;3.63;;;17.20;71.70;;;;;;5128858;27;20026;-80
2022/09/08 01:28:22;;;;;;;7.43;7.03;;;17.20;71.70;;;;;;5127496;27;20024;-83
2022/09/08 01:30:49;;;;;;;9.13;8.73;;;17.20;71.60;;;;;;5127217;27;20433;-84
2022/09/08 01:33:16;;;;;;;6.22;5.90;;;17.10;71.60;;;;;;5127448;27;20020;-83
2022/09/08 01:35:43;;;;;;;6.57;6.18;;;16.90;71.90;;;;;;5128617;27;20030;-83
2022/09/08 01:38:10;;;;;;;7.40;7.00;;;16.80;72.10;;;;;;5110210;27;20038;-83
2022/09/08 01:40:38;;;;;;;6.20;5.85;;;16.80;72.20;;;;;;5110330;27;20119;-83
2022/09/08 01:43:08;;;;;;;6.60;6.20;;;16.80;72.40;;;;;;5128964;27;20027;-83
2022/09/08 01:45:34;;;;;;;6.03;5.72;;;16.80;72.40;;;;;;5127053;27;20502;-83
2022/09/08 01:48:00;;;;;;;5.10;4.80;;;16.70;72.30;;;;;;5127254;27;20027;-82
2022/09/08 01:50:26;;;;;;;5.10;4.80;;;16.70;72.30;;;;;;5128460;27;20038;-82
2022/09/08 01:52:52;;;;;;;5.32;5.03;;;16.80;72.30;;;;;;5110285;28;20046;-82
2022/09/08 01:55:17;;;;;;;5.20;4.90;;;16.70;72.20;;;;;;5109718;28;20051;-82
2022/09/08 01:57:43;;;;;;;5.03;4.72;;;16.80;72.30;;;;;;5109938;28;20257;-82
2022/09/08 02:00:09;;;;;;;;;;;16.80;72.20;;;;;;5127395;28;20027;-82
2022/09/08 02:02:36;;;;;;;4.70;4.40;;;16.80;72.20;;;;;;5127111;28;19903;-83
2022/09/08 02:05:02;;;;;;;4.43;4.13;;;16.80;72.20;;;;;;5110106;28;20676;-83
2022/09/08 02:07:28;;;;;;;3.88;3.58;;;16.80;72.20;;;;;;5127047;28;20467;-83
2022/09/08 02:09:54;;;;;;;4.45;4.15;;;16.90;72.10;;;;;;5092770;28;20596;-83
2022/09/08 02:12:20;;;;;;;4.38;4.07;;;16.90;72.10;;;;;;5126985;28;20038;-82
2022/09/08 02:14:46;;;;;;;4.05;3.75;;;16.90;72.10;;;;;;5127208;28;20029;-83
2022/09/08 02:17:12;;;;;;;4.10;3.80;;;17.00;72.10;;;;;;5126899;28;20382;-83
2022/09/08 02:19:37;;;;;;;8.25;7.85;;;17.00;72.10;;;;;;5126841;28;20063;-83
2022/09/08 02:22:03;;;;;;;11.05;10.55;;;17.00;71.90;;;;;;5127590;28;20038;-83
2022/09/08 02:24:29;;;;;;;9.23;8.80;;;16.80;71.90;;;;;;5110066;28;20035;-83
2022/09/08 02:26:55;;;;;;;13.27;12.68;;;16.60;72.20;;;;;;5126891;28;20474;-83
2022/09/08 02:29:21;;;;;;;13.07;12.48;;;16.60;72.40;;;;;;5109834;28;20083;-83
2022/09/08 02:31:47;;;;;;;11.55;11.05;;;16.50;72.50;;;;;;5126924;28;20114;-83
2022/09/08 02:34:13;;;;;;;6.20;5.90;;;16.50;72.60;;;;;;5128314;28;20157;-83
2022/09/08 02:36:39;;;;;;;5.43;5.13;;;16.50;72.70;;;;;;5127245;28;20034;-83
2022/09/08 02:39:04;;;;;;;4.53;4.22;;;16.50;72.60;;;;;;5109678;28;20035;-83
2022/09/08 02:41:30;;;;;;;5.75;5.45;;;16.50;72.60;;;;;;5126731;28;20168;-83
2022/09/08 02:43:56;;;;;;;4.80;4.50;;;16.60;72.60;;;;;;5126806;28;20076;-83
2022/09/08 02:46:22;;;;;;;4.47;4.18;;;16.60;72.50;;;;;;5126628;28;20039;-83
2022/09/08 02:48:48;;;;;;;4.35;4.05;;;16.60;72.50;;;;;;5127733;28;20395;-83
2022/09/08 02:51:18;;;;;;;4.13;3.83;;;16.60;72.50;;;;;;5109383;28;20084;-83
2022/09/08 02:53:44;;;;;;;4.07;3.78;;;16.70;72.50;;;;;;5127867;28;20080;-82
2022/09/08 02:56:10;;;;;;;4.18;3.88;;;16.70;72.40;;;;;;5127750;27;20055;-82
2022/09/08 02:58:36;;;;;;;3.40;3.15;;;16.70;72.30;;;;;;5112789;27;20024;-82
2022/09/08 03:01:02;;;;;;;;;;;16.70;72.30;;;;;;5131849;27;20027;-83
2022/09/08 03:03:28;;;;;;;2.83;2.63;;;16.70;72.30;;;;;;5130366;27;19903;-83
2022/09/08 03:05:54;;;;;;;3.60;3.33;;;16.70;72.30;;;;;;5113046;27;20490;-83
2022/09/08 03:08:21;;;;;;;3.72;3.42;;;16.80;72.30;;;;;;5130038;27;20065;-83
2022/09/08 03:10:50;;;;;;;4.00;3.70;;;16.80;72.30;;;;;;5129752;27;20530;-83
2022/09/08 03:13:17;;;;;;;3.58;3.30;;;16.80;72.20;;;;;;5096754;27;20178;-83
2022/09/08 03:15:43;;;;;;;3.05;2.85;;;16.90;72.20;;;;;;5129888;27;20093;-82
2022/09/08 03:18:10;;;;;;;;;;;16.90;72.10;;;;;;5130227;27;20080;-83
2022/09/08 03:20:37;;;;;;;3.23;3.03;;;16.90;72.00;;;;;;5112720;27;19911;-83
2022/09/08 03:23:04;;;;;;;6.45;6.05;;;17.00;72.00;;;;;;5131045;27;20027;-83
2022/09/08 03:25:33;;;;;;;7.00;6.60;;;17.00;72.50;;;;;;5131054;27;20300;-83
2022/09/08 03:27:59;;;;;;;5.05;4.75;;;16.90;72.00;;;;;;5129817;27;20490;-84
2022/09/08 03:30:24;;;;;;;4.50;4.20;;;16.90;72.10;;;;;;5112391;27;20031;-84
2022/09/08 03:32:50;;;;;;;4.20;3.90;;;16.80;72.10;;;;;;5112679;27;20037;-83
2022/09/08 03:35:18;;;;;;;3.75;3.45;;;16.70;72.20;;;;;;5129771;27;20031;-83
2022/09/08 03:37:44;;;;;;;3.03;2.83;;;16.70;72.30;;;;;;5131504;27;20023;-83
2022/09/08 03:40:12;;;;;;;3.63;3.35;;;16.70;72.30;;;;;;5129692;27;20035;-83
2022/09/08 03:42:40;;;;;;;2.90;2.70;;;16.70;72.30;;;;;;5130927;27;20056;-83
2022/09/08 03:45:12;;;;;;;3.00;2.80;;;16.80;72.30;;;;;;5130998;27;20023;-84
2022/09/08 03:47:38;;;;;;;2.63;2.42;;;16.80;72.20;;;;;;5129581;27;20031;-83
2022/09/08 03:50:05;;;;;;;2.97;2.78;;;16.80;72.20;;;;;;5129250;27;20019;-83
2022/09/08 03:52:30;;;;;;;2.70;2.50;;;16.80;72.20;;;;;;5129551;27;20436;-83
2022/09/08 03:54:57;;;;;;;2.70;2.50;;;16.90;72.10;;;;;;5129134;27;20051;-83
2022/09/08 03:57:25;;;;;;;2.60;2.40;;;16.90;72.10;;;;;;5130491;27;20114;-83
2022/09/08 03:59:52;;;;;;;2.65;2.45;;;16.90;72.00;;;;;;5130471;27;20197;-83
2022/09/08 04:02:18;;;;;;;2.95;2.75;;;16.90;72.00;;;;;;5129153;27;20042;-83
2022/09/08 04:04:48;;;;;;;3.17;2.97;;;16.90;72.00;;;;;;5129046;27;20450;-83
2022/09/08 04:07:14;;;;;;;2.85;2.65;;;17.00;72.10;;;;;;5111705;27;20027;-83
2022/09/08 04:09:41;;;;;;;3.85;3.55;;;16.90;72.00;;;;;;5128098;27;20027;-83
2022/09/08 04:12:07;;;;;;;3.13;2.92;;;17.00;72.00;;;;;;5129023;27;20023;-83
2022/09/08 04:14:33;;;;;;;2.90;2.70;;;17.00;72.00;;;;;;5112102;27;20509;-83
2022/09/08 04:16:59;;;;;;;3.28;3.08;;;17.00;72.00;;;;;;5094883;27;20031;-83
2022/09/08 04:19:25;;;;;;;2.83;2.63;;;16.90;72.00;;;;;;5130151;27;20033;-82
2022/09/08 04:21:50;;;;;;;2.97;2.78;;;17.00;72.00;;;;;;5129016;27;20502;-82
2022/09/08 04:24:18;;;;;;;3.58;3.28;;;17.00;72.00;;;;;;5129172;27;20107;-83
2022/09/08 04:26:44;;;;;;;3.05;2.85;;;17.00;72.00;;;;;;5111612;27;20451;-82
2022/09/08 04:29:09;;;;;;;3.45;3.17;;;17.00;72.00;;;;;;5111466;27;20031;-83
2022/09/08 04:31:35;;;;;;;3.72;3.42;;;17.00;72.00;;;;;;5128488;27;20035;-82
2022/09/08 04:34:02;;;;;;;;;;;17.00;72.00;;;;;;5129085;27;20030;-83
2022/09/08 04:36:28;;;;;;;5.27;4.97;;;17.00;72.00;;;;;;5111458;27;19911;-83
2022/09/08 04:38:55;;;;;;;7.95;7.55;;;17.00;71.90;;;;;;5128777;27;20019;-83
2022/09/08 04:41:21;;;;;;;7.00;6.60;;;17.00;72.00;;;;;;5130212;27;20027;-84
2022/09/08 04:43:46;;;;;;;9.77;9.27;;;16.80;71.90;;;;;;5128571;27;20034;-83
2022/09/08 04:46:14;;;;;;;12.63;12.02;;;16.70;72.20;;;;;;5128086;27;20023;-83
2022/09/08 04:48:42;;;;;;;11.93;11.43;;;16.60;72.40;;;;;;5129857;27;20047;-82
2022/09/08 04:51:10;;;;;;;10.05;9.55;;;16.60;72.50;;;;;;5128536;27;20479;-83
2022/09/08 04:53:36;;;;;;;11.15;10.65;;;16.50;72.50;;;;;;5128423;27;20519;-84
2022/09/08 04:56:04;;;;;;;11.90;11.40;;;16.50;72.60;;;;;;5111044;27;20074;-83
2022/09/08 04:58:31;;;;;;;11.90;11.40;;;16.50;72.60;;;;;;5129132;27;20031;-83
2022/09/08 05:01:10;;;;;;;9.75;9.27;;;16.50;72.60;;;;;;5129419;27;20063;-83
2022/09/08 05:03:37;;;;;;;10.60;10.10;;;16.50;72.50;;;;;;5129573;27;20019;-83
2022/09/08 05:06:08;;;;;;;10.75;10.25;;;16.60;72.50;;;;;;5127894;27;20507;-83
2022/09/08 05:08:34;;;;;;;11.20;10.70;;;16.60;72.50;;;;;;5128415;27;20430;-83
2022/09/08 05:11:00;;;;;;;11.25;10.75;;;16.60;72.40;;;;;;5129572;27;20087;-83
2022/09/08 05:13:26;;;;;;;18.98;18.20;;;16.60;72.50;;;;;;5128668;27;20027;-83
2022/09/08 05:15:52;;;;;;;19.98;19.17;;;16.50;72.40;;;;;;5128785;27;20151;-83
2022/09/08 05:18:18;;;;;;;30.73;29.52;;;16.50;72.50;;;;;;5128370;27;20031;-84
2022/09/08 05:20:53;;;;;;;33.92;32.63;;;16.40;72.50;;;;;;5110441;27;20054;-83
2022/09/08 05:23:19;;;;;;;34.83;33.53;;;16.30;72.60;;;;;;5129397;27;20387;-84
2022/09/08 05:25:44;;;;;;;34.30;33.00;;;16.20;72.60;;;;;;5111591;27;20034;-83
2022/09/08 05:28:10;;;;;;;34.38;33.08;;;16.10;72.70;;;;;;5112257;27;20043;-83
2022/09/08 05:30:39;;;;;;;36.63;35.25;;;16.10;72.70;;;;;;5111752;27;20399;-83
2022/09/08 05:33:05;;;;;;;41.03;39.53;;;16.10;72.70;;;;;;5111822;27;20114;-84
2022/09/08 05:35:34;;;;;;;40.00;38.50;;;16.20;72.70;;;;;;5111659;27;20110;-83
2022/09/08 05:38:00;;;;;;;39.67;38.20;;;16.20;72.60;;;;;;5128201;27;20350;-83
2022/09/08 05:40:25;;;;;;;40.63;39.13;;;16.20;72.50;;;;;;5094276;27;20273;-84
2022/09/08 05:42:51;;;;;;;41.80;40.30;;;16.20;72.50;;;;;;5112129;27;20107;-76
2022/09/08 05:45:17;;;;;;;38.42;37.03;;;16.20;72.50;;;;;;5131469;27;20441;-84
2022/09/08 05:47:42;;;;;;;35.97;34.65;;;16.30;72.60;;;;;;5129511;27;20031;-84
2022/09/08 05:50:08;;;;;;;37.05;35.65;;;16.30;72.50;;;;;;5112907;27;20061;-83
2022/09/08 05:52:34;;;;;;;41.47;39.97;;;16.40;72.60;;;;;;5133185;27;20052;-82
2022/09/08 05:55:00;;;;;;;38.60;37.20;;;16.40;72.50;;;;;;5132030;28;20039;-82
2022/09/08 05:57:28;;;;;;;39.72;38.22;;;16.50;72.50;;;;;;5131473;28;20506;-83
2022/09/08 05:59:53;;;;;;;37.85;36.45;;;16.50;72.40;;;;;;5111511;28;20529;-82
2022/09/08 06:02:19;;;;;;;41.08;39.58;;;16.60;72.30;;;;;;5128439;28;20035;-82
2022/09/08 06:04:45;;;;;;;42.30;40.75;;;16.60;72.30;;;;;;5111850;28;20032;-83
2022/09/08 06:07:10;;;;;;;40.47;38.97;;;16.70;72.30;;;;;;5113243;28;20091;-82
2022/09/08 06:09:36;;;;;;;37.97;36.58;;;16.70;72.20;;;;;;5129529;28;20035;-83
2022/09/08 06:12:02;;;;;;;38.63;37.22;;;16.80;72.20;;;;;;5129126;28;20034;-82
2022/09/08 06:14:28;;;;;;;37.88;36.47;;;16.80;72.20;;;;;;5128900;28;20390;-82
2022/09/08 06:16:54;;;;;;;36.80;35.45;;;16.90;72.10;;;;;;5128342;28;20099;-82
2022/09/08 06:19:19;;;;;;;36.17;34.85;;;16.90;72.10;;;;;;5130252;28;20027;-82
2022/09/08 06:21:45;;;;;;;37.80;36.40;;;16.90;72.10;;;;;;5112410;28;20024;-83
2022/09/08 06:24:13;;;;;;;34.85;33.55;;;16.90;72.00;;;;;;5112410;28;20035;-83
2022/09/08 06:27:13;;;;;;;34.13;32.83;;;17.00;72.00;;;;;;5111684;28;20452;-83
2022/09/08 06:30:02;;;;;;;32.95;31.75;;;17.00;72.10;;;;;;5130342;28;20066;-82
2022/09/08 06:32:36;;;;;;;29.95;28.85;;;17.00;72.10;;;;;;5133175;27;20498;-83
2022/09/08 06:35:12;;;;;;;32.22;31.02;;;17.00;72.00;;;;;;5136267;27;20077;-82
2022/09/08 06:37:58;;;;;;;30.27;29.15;;;17.00;72.00;;;;;;5134977;27;20019;-82
2022/09/08 06:40:39;;;;;;;31.17;30.00;;;17.10;72.10;;;;;;5133782;27;20035;-82
2022/09/08 06:43:24;;;;;;;34.38;33.08;;;17.10;72.10;;;;;;5131891;27;20027;-84
2022/09/08 06:45:52;;;;;;;31.52;30.33;;;17.10;72.10;;;;;;5132547;27;20381;-84
2022/09/08 06:48:30;;;;;;;31.17;29.98;;;17.20;72.10;;;;;;5133064;27;20019;-82
2022/09/08 06:51:17;;;;;;;33.88;32.58;;;17.20;72.20;;;;;;5135123;27;20019;-83
2022/09/08 06:53:52;;;;;;;35.55;34.25;;;17.30;72.20;;;;;;5134600;27;20023;-83
2022/09/08 06:56:59;;;;;;;33.65;32.38;;;17.30;72.20;;;;;;5133539;27;20506;-83
2022/09/08 06:59:48;;;;;;;31.83;30.63;;;17.40;72.20;;;;;;5133645;27;20029;-82
2022/09/08 07:02:46;;;;;;;33.42;32.17;;;17.40;72.10;;;;;;5132480;27;20083;-82
2022/09/08 07:05:39;;;;;;;33.72;32.45;;;17.30;72.20;;;;;;5131208;27;20032;-83
2022/09/08 07:08:14;;;;;;;31.35;30.15;;;17.30;72.20;;;;;;5132076;27;20072;-82
2022/09/08 07:10:47;;;;;;;31.17;29.98;;;17.40;72.30;;;;;;5133802;27;20023;-83
2022/09/08 07:13:33;;;;;;;29.17;28.08;;;17.40;72.30;;;;;;5133151;27;20019;-83
2022/09/08 07:16:14;;;;;;;30.80;29.60;;;17.40;72.30;;;;;;5132583;27;20046;-83
2022/09/08 07:19:16;;;;;;;29.38;28.27;;;17.40;72.30;;;;;;5133736;27;20015;-83
2022/09/08 07:22:14;;;;;;;28.50;27.40;;;17.30;72.40;;;;;;5133145;27;20054;-78
2022/09/08 07:24:41;;;;;;;27.70;26.65;;;17.30;72.50;;;;;;5135110;27;20019;-83
2022/09/08 07:27:12;;;;;;;26.58;25.58;;;17.30;72.50;;;;;;5116639;27;20043;-82
2022/09/08 07:29:44;;;;;;;29.92;28.83;;;17.30;72.60;;;;;;5134704;27;20516;-83
2022/09/08 07:32:17;;;;;;;27.00;26.00;;;17.40;72.60;;;;;;5134546;27;20539;-83
2022/09/08 07:34:55;;;;;;;28.45;27.35;;;17.40;72.50;;;;;;5135767;27;20371;-84
2022/09/08 07:37:28;;;;;;;25.30;24.30;;;17.50;72.50;;;;;;5131772;27;20050;-83
2022/09/08 07:40:17;;;;;;;26.20;25.20;;;17.40;72.50;;;;;;5132260;27;20019;-83
2022/09/08 07:42:49;;;;;;;26.23;25.23;;;17.50;73.10;;;;;;5131179;27;20095;-82
2022/09/08 07:45:15;;;;;;;27.35;26.30;;;17.50;72.50;;;;;;5131616;27;20106;-82
2022/09/08 07:48:00;;;;;;;25.75;24.75;;;17.60;72.50;;;;;;5114832;27;20083;-83
2022/09/08 07:50:53;;;;;;;26.13;25.13;;;17.60;72.40;;;;;;5133131;27;20483;-83
2022/09/08 07:53:52;;;;;;;31.10;29.90;;;17.70;72.50;;;;;;5131398;27;20028;-83
2022/09/08 07:56:43;;;;;;;26.73;25.73;;;17.80;72.60;;;;;;5132217;27;20494;-83
2022/09/08 07:59:36;;;;;;;26.67;25.67;;;18.00;72.50;;;;;;5130922;27;20041;-83
2022/09/08 08:02:08;;;;;;;25.55;24.55;;;18.20;72.50;;;;;;5133170;27;20400;-82
2022/09/08 08:05:15;;;;;;;26.17;25.17;;;18.30;72.50;;;;;;5136332;27;20047;-82
2022/09/08 08:08:11;;;;;;;23.83;22.92;;;18.40;72.50;;;;;;5134970;27;20027;-82
2022/09/08 08:11:04;;;;;;;21.58;20.67;;;18.40;72.30;;;;;;5122911;27;20023;-82
2022/09/08 08:13:37;;;;;;;21.17;20.38;;;18.40;72.40;;;;;;5096408;28;20492;-79
2022/09/08 08:16:12;;;;;;;19.45;18.65;;;18.40;72.40;;;;;;5096641;28;20024;-79
2022/09/08 08:19:00;;;;;;;18.50;17.75;;;18.40;72.40;;;;;;5116190;28;20019;-80
2022/09/08 08:21:35;;;;;;;16.00;15.30;;;18.40;72.50;;;;;;5112191;28;20111;-79
2022/09/08 08:24:24;;;;;;;19.67;18.88;;;18.40;72.50;;;;;;5096838;28;20023;-79
2022/09/08 08:27:08;;;;;;;18.13;17.40;;;18.40;72.40;;;;;;5111528;28;20028;-80
2022/09/08 08:29:52;;;;;;;11.10;10.60;;;18.40;72.40;;;;;;5111789;28;20047;-78
2022/09/08 08:32:27;;;;;;;10.13;9.63;;;18.40;72.40;;;;;;5111043;28;20065;-80
2022/09/08 08:35:05;;;;;;;9.02;8.63;;;18.30;72.50;;;;;;5107903;28;20024;-80
2022/09/08 08:37:36;;;;;;;7.65;7.25;;;18.40;72.70;;;;;;5108064;28;20047;-80
2022/09/08 08:40:28;;;;;;;9.13;8.73;;;18.50;72.70;;;;;;5109082;28;20542;-81
2022/09/08 08:43:16;;;;;;;7.43;7.03;;;18.50;72.60;;;;;;5109089;28;20041;-80
2022/09/08 08:45:45;;;;;;;8.40;8.00;;;18.60;72.60;;;;;;5109242;28;20033;-80
2022/09/08 08:48:47;;;;;;;7.95;7.55;;;18.70;72.50;;;;;;5108982;28;20034;-81
2022/09/08 08:51:35;;;;;;;5.85;5.55;;;18.60;72.50;;;;;;5108777;28;20027;-80
2022/09/08 08:54:07;;;;;;;5.90;5.60;;;18.70;72.60;;;;;;5107098;28;20127;-80
2022/09/08 08:56:42;;;;;;;5.05;4.75;;;18.90;72.80;;;;;;5107101;28;20081;-80
2022/09/08 08:59:30;;;;;;;5.18;4.88;;;19.20;73.10;;;;;;5107366;28;20034;-80
2022/09/08 09:02:23;;;;;;;4.00;3.70;;;19.40;72.80;;;;;;5109218;28;20032;-80
2022/09/08 09:05:17;;;;;;;3.22;3.03;;;19.60;72.60;;;;;;5108300;28;20073;-81
2022/09/08 09:08:04;;;;;;;3.90;3.60;;;19.70;72.40;;;;;;5110071;28;20026;-80
2022/09/08 09:10:48;;;;;;;2.80;2.60;;;19.70;72.20;;;;;;5109081;28;20434;-80
2022/09/08 09:13:46;;;;;;;2.67;2.47;;;19.60;72.40;;;;;;5110294;28;20098;-81
2022/09/08 09:16:36;;;;;;;2.90;2.70;;;19.60;72.50;;;;;;5107975;28;20016;-80
2022/09/08 09:19:07;;;;;;;2.90;2.70;;;19.60;72.60;;;;;;5109952;28;20494;-80
2022/09/08 09:21:54;;;;;;;2.95;2.75;;;19.80;72.90;;;;;;5109693;28;20024;-80
2022/09/08 09:24:42;;;;;;;1.77;1.67;;;20.30;73.40;;;;;;5099548;28;20032;-79
2022/09/08 09:27:33;;;;;;;1.90;1.80;;;21.00;73.70;;;;;;5108635;28;20020;-78
2022/09/08 09:30:12;;;;;;;1.50;1.40;;;22.20;73.20;;;;;;5090749;28;20028;-79
2022/09/08 09:32:56;;;;;;;0.75;0.75;;;22.60;72.20;;;;;;5129580;27;20015;-75
2022/09/08 09:35:40;;;;;;;0.60;0.60;;;22.60;71.60;;;;;;5113221;27;20090;-81
2022/09/08 09:38:35;;;;;;;0.60;0.60;;;22.40;71.50;;;;;;5117183;27;20079;-78
2022/09/08 09:41:40;;;;;;;0.30;0.30;;;22.50;72.70;;;;;;5101843;27;20022;-78
2022/09/08 09:44:09;;;;;;;0.10;0.10;;;23.00;72.80;;;;;;5111564;27;20033;-80
2022/09/08 09:46:47;;;;;;;0.10;0.10;;;23.20;72.40;;;;;;5113601;27;20448;-76
2022/09/08 09:49:27;;;;;;;0.00;0.00;;;23.10;72.20;;;;;;5096435;28;20023;-79
2022/09/08 09:52:03;;;;;;;0.03;0.03;;;22.90;72.00;;;;;;5105658;28;20020;-79
2022/09/08 09:54:34;;;;;;;0.10;0.10;;;22.60;72.00;;;;;;5106793;28;20031;-79
2022/09/08 09:57:33;;;;;;;0.10;0.10;;;22.40;72.30;;;;;;5108502;28;20058;-79
2022/09/08 10:00:12;;;;;;;0.10;0.10;;;22.30;72.40;;;;;;5108176;28;20024;-80
2022/09/08 10:02:47;;;;;;;0.10;0.10;;;22.10;72.50;;;;;;5110803;28;20023;-77
2022/09/08 10:05:44;;;;;;;0.10;0.10;;;22.00;72.60;;;;;;5109190;28;20019;-80
2022/09/08 10:08:25;;;;;;;0.20;0.20;;;21.80;72.50;;;;;;5098555;28;20016;-73
2022/09/08 10:10:56;;;;;;;0.20;0.20;;;21.80;72.70;;;;;;5110081;28;20460;-72
2022/09/08 10:13:43;;;;;;;0.13;0.13;;;22.20;73.80;;;;;;5111828;28;20039;-71
2022/09/08 10:16:11;;;;;;;;;;;23.10;74.00;;;;;;5111088;28;20020;-72
2022/09/08 10:18:52;;;;;;;0.00;0.00;;;23.40;72.60;;;;;;5111119;28;19956;-71
2022/09/08 10:21:21;;;;;;;0.00;0.00;;;23.20;72.10;;;;;;5108525;28;20020;-72
2022/09/08 10:24:24;;;;;;;0.10;0.10;;;22.80;72.40;;;;;;5112684;28;20059;-78
2022/09/08 10:27:15;;;;;;;0.00;0.00;;;23.00;73.70;;;;;;5113436;28;20024;-81
2022/09/08 10:30:00;;;;;;;0.00;0.00;;;25.00;75.30;;;;;;5113002;28;20471;-79
2022/09/08 10:32:28;;;;;;;0.15;0.10;;;26.20;73.40;;;;;;5111349;28;20062;-80
2022/09/08 10:35:13;;;;;;;0.00;0.00;;;26.20;72.30;;;;;;5112479;28;20020;-80
2022/09/08 10:38:17;;;;;;;0.00;0.00;;;25.70;71.20;;;;;;5112501;28;20016;-80
2022/09/08 10:40:55;;;;;;;0.00;0.00;;;24.70;71.10;;;;;;5105362;28;20076;-80
2022/09/08 10:43:33;;;;;;;0.00;0.00;;;24.00;71.80;;;;;;5110877;28;20055;-80
2022/09/08 10:46:27;;;;;;;1.85;0.63;;;23.40;72.30;;;;;;5110793;28;20039;-79
2022/09/08 10:48:58;;;;;;;0.00;0.00;;;22.90;72.60;;;;;;5113446;27;20020;-78
2022/09/08 10:52:11;;;;;;;0.00;0.00;;;22.60;72.90;;;;;;5111092;28;20030;-79
2022/09/08 10:55:02;;;;;;;0.00;0.00;;;22.50;73.20;;;;;;5106122;28;20571;-77
2022/09/08 10:58:33;;;;;;;0.00;0.00;;;22.70;73.20;;;;;;5111992;28;20515;-78
2022/09/08 11:01:27;;;;;;;0.00;0.00;;;23.00;73.10;;;;;;5033091;28;20025;-78
2022/09/08 11:04:10;;;;;;;0.00;0.00;;;23.20;72.80;;;;;;5038742;28;20033;-78
2022/09/08 11:06:35;;;;;;;0.10;0.10;;;23.20;72.50;;;;;;5076190;28;20040;-76
2022/09/08 11:09:10;;;;;;;;;;;23.20;72.50;;;;;;5091041;28;20131;-79
2022/09/08 11:11:48;;;;;;;0.00;0.00;;;23.10;72.60;;;;;;5092155;28;19904;-72
2022/09/08 11:14:41;;;;;;;0.00;0.00;;;23.10;72.50;;;;;;5092364;28;20107;-79
2022/09/08 11:17:27;;;;;;;0.00;0.00;;;23.10;72.50;;;;;;5091183;28;20028;-78
2022/09/08 11:20:40;;;;;;;0.00;0.00;;;23.00;72.30;;;;;;5092130;28;20074;-79
2022/09/08 11:23:30;;;;;;;0.00;0.00;;;22.80;72.40;;;;;;5092032;28;20100;-79
2022/09/08 11:26:17;;;;;;;0.00;0.00;;;22.60;72.40;;;;;;5090797;28;20081;-78
2022/09/08 11:29:11;;;;;;;0.10;0.08;;;22.30;72.30;;;;;;5091497;28;20475;-78
2022/09/08 11:31:54;;;;;;;0.00;0.00;;;22.00;72.50;;;;;;5091214;28;20391;-79
2022/09/08 11:34:38;;;;;;;0.00;0.00;;;21.80;72.70;;;;;;5090407;28;20036;-78
2022/09/08 11:37:27;;;;;;;0.00;0.00;;;21.80;73.20;;;;;;5092091;28;20016;-82
2022/09/08 11:40:12;;;;;;;0.00;0.00;;;22.40;74.60;;;;;;5061614;28;20035;-80
2022/09/08 11:42:53;;;;;;;0.00;0.00;;;23.30;73.90;;;;;;5091215;28;20028;-77
2022/09/08 11:45:48;;;;;;;0.00;0.00;;;23.60;72.80;;;;;;5091734;28;20023;-78
2022/09/08 11:48:39;;;;;;;0.00;0.00;;;23.80;72.70;;;;;;5101562;28;20027;-76
2022/09/08 11:51:49;;;;;;;0.00;0.00;;;24.10;73.20;;;;;;5111538;28;20024;-79
2022/09/08 11:54:32;;;;;;;0.00;0.00;;;24.60;73.40;;;;;;5056486;28;20086;-79
2022/09/08 11:57:30;;;;;;;0.00;0.00;;;25.20;72.90;;;;;;5110784;28;20027;-78
2022/09/08 12:00:19;;;;;;;0.00;0.00;;;25.50;72.40;;;;;;5105377;28;20468;-79
2022/09/08 12:03:13;;;;;;;0.00;0.00;;;25.40;71.70;;;;;;5104029;28;20455;-74
2022/09/08 12:06:02;;;;;;;0.00;0.00;;;25.10;71.80;;;;;;5108034;28;20058;-75
2022/09/08 12:08:46;;;;;;;0.00;0.00;;;24.90;72.10;;;;;;5107739;28;20378;-77
2022/09/08 12:11:39;;;;;;;0.00;0.00;;;24.60;71.90;;;;;;5111441;28;20477;-78
2022/09/08 12:14:44;;;;;;;0.00;0.00;;;24.10;72.10;;;;;;5078890;28;20055;-76
2022/09/08 12:17:25;;;;;;;0.00;0.00;;;23.70;72.30;;;;;;5107899;28;20032;-76
2022/09/08 12:19:59;;;;;;;0.00;0.00;;;23.40;72.90;;;;;;5110265;28;20034;-77
2022/09/08 12:22:51;;;;;;;0.00;0.00;;;23.40;73.00;;;;;;5109913;28;20489;-77
2022/09/08 12:25:35;;;;;;;0.00;0.00;;;24.20;74.20;;;;;;5093454;28;20154;-76
2022/09/08 12:28:49;;;;;;;0.00;0.00;;;24.40;73.00;;;;;;5108327;28;20028;-77
2022/09/08 12:31:34;;;;;;;0.00;0.00;;;24.10;72.80;;;;;;5063473;28;20400;-76
2022/09/08 12:34:09;;;;;;;0.00;0.00;;;23.90;72.90;;;;;;5109130;28;20035;-78
2022/09/08 12:36:41;;;;;;;0.00;0.00;;;23.70;72.60;;;;;;5110139;28;20444;-76
2022/09/08 12:40:04;;;;;;;0.00;0.00;;;23.30;72.50;;;;;;5110689;28;20038;-76
2022/09/08 12:43:07;;;;;;;0.00;0.00;;;22.90;72.80;;;;;;5047207;28;20073;-77
2022/09/08 12:45:45;;;;;;;0.00;0.00;;;22.60;73.00;;;;;;5047005;28;20358;-77
2022/09/08 12:48:26;;;;;;;0.00;0.00;;;22.40;73.00;;;;;;5106536;27;20391;-81
2022/09/08 12:51:04;;;;;;;0.00;0.00;;;22.10;73.00;;;;;;5110498;28;20642;-76
2022/09/08 12:53:30;;;;;;;0.00;0.00;;;21.90;73.10;;;;;;5110645;28;20363;-74
2022/09/08 12:56:01;;;;;;;;;;;21.80;73.40;;;;;;5110954;28;20044;-76
2022/09/08 12:58:38;;;;;;;0.00;0.00;;;21.70;73.40;;;;;;5110074;28;20555;-75
2022/09/08 13:01:23;;;;;;;0.00;0.00;;;21.50;73.10;;;;;;5110175;28;20019;-76
2022/09/08 13:03:52;;;;;;;0.00;0.00;;;21.40;73.20;;;;;;5110222;28;20177;-78
2022/09/08 13:06:23;;;;;;;0.00;0.00;;;21.20;73.10;;;;;;5109994;28;20156;-79
2022/09/08 13:09:18;;;;;;;0.00;0.00;;;21.20;73.30;;;;;;5110048;28;20444;-76
2022/09/08 13:11:55;;;;;;;0.00;0.00;;;21.40;74.30;;;;;;5101659;28;20093;-74
2022/09/08 13:14:52;;;;;;;0.00;0.00;;;22.60;75.30;;;;;;5110072;28;20035;-75
2022/09/08 13:18:09;;;;;;;0.00;0.00;;;23.60;73.90;;;;;;5080170;28;20031;-76
2022/09/08 13:20:42;;;;;;;0.00;0.00;;;23.60;72.60;;;;;;5095949;28;20075;-78
2022/09/08 13:23:42;;;;;;;0.00;0.00;;;23.20;72.60;;;;;;5109739;28;20375;-75
2022/09/08 13:26:33;;;;;;;0.00;0.00;;;22.90;72.80;;;;;;5109458;28;20431;-74
2022/09/08 13:29:19;;;;;;;0.00;0.00;;;22.80;73.50;;;;;;5109627;28;20532;-76
2022/09/08 13:31:53;;;;;;;0.00;0.00;;;22.60;72.70;;;;;;5109655;28;20024;-76
2022/09/08 13:34:37;;;;;;;0.00;0.00;;;22.40;73.00;;;;;;5109640;28;20071;-79